Time;durP1;ratioP1;P1;durP2;ratioP2;P2;SDS_P1;SDS_P2;PMS_P1;PMS_P2;Temp;Humidity;BMP_temperature;BMP_pressure;BME280_temperature;BME280_humidity;BME280_pressure;Samples;Min_cycle;Max_cycle;Signal;HPM_P1;HPM_P2
2022/09/16 00:02:13;;;;;;;5.10;1.60;;;;;;;10.70;100.00;101016.50;5070132;28;20029;-81
2022/09/16 00:04:39;;;;;;;8.07;1.90;;;;;;;10.78;100.00;101017.09;5069771;28;20033;-81
2022/09/16 00:07:04;;;;;;;9.03;2.00;;;;;;;10.81;100.00;101021.97;5071240;28;20036;-81
2022/09/16 00:09:29;;;;;;;6.93;1.67;;;;;;;10.76;100.00;101003.97;5067864;28;20118;-81
2022/09/16 00:11:56;;;;;;;7.13;1.80;;;;;;;10.73;100.00;100997.25;5051918;28;20108;-81
2022/09/16 00:14:21;;;;;;;5.73;1.70;;;;;;;10.87;100.00;101026.31;5063387;28;20060;-82
2022/09/16 00:16:46;;;;;;;10.38;1.67;;;;;;;10.88;100.00;101014.53;5064859;28;20055;-81
2022/09/16 00:19:12;;;;;;;3.93;1.23;;;;;;;10.73;100.00;100988.38;5071771;28;20498;-81
2022/09/16 00:21:37;;;;;;;6.53;1.67;;;;;;;10.89;100.00;101018.81;5068639;28;20021;-81
2022/09/16 00:24:04;;;;;;;10.80;1.40;;;;;;;10.88;100.00;101004.59;5071472;28;20526;-82
2022/09/16 00:26:31;;;;;;;6.10;1.92;;;;;;;10.95;100.00;101011.63;5071558;28;20092;-81
2022/09/16 00:28:56;;;;;;;6.03;1.75;;;;;;;10.88;100.00;100993.06;5071837;28;20020;-81
2022/09/16 00:31:21;;;;;;;5.17;1.30;;;;;;;10.93;100.00;101001.19;5069450;28;20024;-81
2022/09/16 00:33:47;;;;;;;5.43;1.40;;;;;;;10.95;100.00;101000.91;5054960;28;20070;-81
2022/09/16 00:36:16;;;;;;;5.00;1.50;;;;;;;10.94;100.00;100999.28;5055281;28;20048;-81
2022/09/16 00:38:42;;;;;;;2.90;1.15;;;;;;;10.89;100.00;100997.38;5055936;28;20083;-81
2022/09/16 00:41:12;;;;;;;6.38;1.15;;;;;;;10.85;100.00;100996.25;5050794;28;20029;-81
2022/09/16 00:43:55;;;;;;;6.53;1.20;;;;;;;10.81;100.00;101004.00;5051723;28;20028;-81
2022/09/16 00:46:30;;;;;;;7.07;1.00;;;;;;;10.77;100.00;100996.75;5050763;28;20103;-81
2022/09/16 00:48:59;;;;;;;7.63;1.13;;;;;;;10.70;100.00;101005.78;5067132;28;20394;-81
2022/09/16 00:51:26;;;;;;;7.85;1.17;;;;;;;10.66;100.00;101006.56;5069295;28;20032;-82
2022/09/16 00:53:55;;;;;;;4.55;1.25;;;;;;;10.56;100.00;101000.03;5062030;28;20033;-81
2022/09/16 00:56:24;;;;;;;7.78;1.48;;;;;;;10.50;100.00;100981.47;5062977;28;20035;-81
2022/09/16 00:59:01;;;;;;;6.88;1.40;;;;;;;10.47;100.00;100984.66;5070417;28;20031;-81
2022/09/16 01:01:29;;;;;;;8.40;1.45;;;;;;;10.42;100.00;100988.09;5069305;28;20032;-81
2022/09/16 01:03:58;;;;;;;8.23;1.60;;;;;;;10.38;100.00;100987.81;5071310;28;20028;-81
2022/09/16 01:06:25;;;;;;;6.03;1.70;;;;;;;10.40;100.00;100995.59;5071061;28;20025;-80
2022/09/16 01:08:50;;;;;;;4.82;1.20;;;;;;;10.33;100.00;101000.28;5070839;28;20025;-80
2022/09/16 01:11:16;;;;;;;5.97;1.63;;;;;;;10.25;100.00;100993.50;5049448;28;20025;-81
2022/09/16 01:13:43;;;;;;;7.50;1.73;;;;;;;10.15;100.00;100989.69;5051029;28;20052;-81
2022/09/16 01:16:36;;;;;;;7.27;2.20;;;;;;;10.00;100.00;100981.47;5064514;28;20517;-81
2022/09/16 01:19:31;;;;;;;4.37;1.67;;;;;;;9.98;100.00;100988.94;5040367;28;20291;-82
2022/09/16 01:22:32;;;;;;;9.80;2.13;;;;;;;9.90;100.00;100978.66;5060444;28;20445;-81
2022/09/16 01:25:33;;;;;;;8.73;1.83;;;;;;;9.86;100.00;100981.03;5069334;28;20025;-81
2022/09/16 01:28:07;;;;;;;7.43;1.90;;;;;;;9.81;100.00;100986.31;5050506;28;20029;-81
2022/09/16 01:30:48;;;;;;;6.70;2.65;;;;;;;9.78;100.00;100974.25;5050404;28;20143;-81
2022/09/16 01:33:37;;;;;;;6.15;1.95;;;;;;;9.70;100.00;100983.53;5064143;28;20039;-81
2022/09/16 01:36:32;;;;;;;6.68;1.92;;;;;;;9.68;100.00;100974.94;5070163;28;20055;-81
2022/09/16 01:39:13;;;;;;;7.78;2.00;;;;;;;9.75;100.00;100984.66;5052827;28;20124;-81
2022/09/16 01:42:28;;;;;;;6.57;2.17;;;;;;;9.64;100.00;100975.69;5050671;28;20043;-81
2022/09/16 01:45:03;;;;;;;6.00;2.20;;;;;;;9.47;100.00;100973.84;5049487;28;20033;-81
2022/09/16 01:47:48;;;;;;;5.17;2.10;;;;;;;9.47;100.00;100973.84;5066864;28;20286;-81
2022/09/16 01:50:18;;;;;;;8.50;2.40;;;;;;;9.38;100.00;100973.47;5069902;28;20024;-81
2022/09/16 01:53:03;;;;;;;8.50;2.25;;;;;;;9.25;100.00;100976.47;5070471;28;20025;-81
2022/09/16 01:55:35;;;;;;;12.65;2.60;;;;;;;9.31;100.00;100977.38;5066709;28;20024;-81
2022/09/16 01:58:09;;;;;;;7.45;2.15;;;;;;;9.35;100.00;100970.47;5050076;28;20101;-81
2022/09/16 02:00:38;;;;;;;8.55;2.50;;;;;;;9.37;100.00;100979.06;5061282;28;20365;-81
2022/09/16 02:03:12;;;;;;;10.18;2.75;;;;;;;9.37;100.00;100979.06;5062882;28;20020;-81
2022/09/16 02:05:47;;;;;;;6.47;2.50;;;;;;;9.33;100.00;100975.25;5063324;28;20144;-82
2022/09/16 02:08:19;;;;;;;9.02;2.70;;;;;;;9.26;100.00;100982.63;5056323;28;20646;-82
2022/09/16 02:10:54;;;;;;;6.23;2.47;;;;;;;9.24;100.00;100981.03;5067184;28;20070;-82
2022/09/16 02:13:24;;;;;;;7.10;2.70;;;;;;;9.27;100.00;100978.91;5048822;28;20386;-83
2022/09/16 02:15:52;;;;;;;10.88;2.88;;;;;;;9.29;100.00;100985.63;5063223;28;20120;-83
2022/09/16 02:18:28;;;;;;;12.38;2.70;;;;;;;9.34;100.00;100993.72;5055287;28;20081;-81
2022/09/16 02:20:56;;;;;;;7.63;2.50;;;;;;;9.33;100.00;100983.25;5059403;28;20503;-82
2022/09/16 02:23:25;;;;;;;10.07;3.05;;;;;;;9.37;100.00;100987.06;5070359;28;20115;-82
2022/09/16 02:25:53;;;;;;;11.80;2.47;;;;;;;9.36;100.00;100986.28;5045830;22;20042;-82
2022/09/16 02:28:41;;;;;;;8.45;2.40;;;;;;;9.44;100.00;100982.38;5020129;28;20568;-81
2022/09/16 02:31:09;;;;;;;9.00;2.80;;;;;;;9.56;100.00;100982.28;5023588;28;20083;-82
2022/09/16 02:33:50;;;;;;;9.32;2.63;;;;;;;9.57;100.00;100978.53;5027489;28;20068;-82
2022/09/16 02:36:20;;;;;;;6.13;2.50;;;;;;;9.69;100.00;100986.44;5024405;28;20112;-83
2022/09/16 02:38:51;;;;;;;8.40;2.50;;;;;;;9.68;100.00;100980.28;5008268;28;20320;-82
2022/09/16 02:41:17;;;;;;;5.13;1.92;;;;;;;9.73;100.00;100987.56;5009104;28;20069;-82
2022/09/16 02:43:44;;;;;;;7.10;2.22;;;;;;;9.78;100.00;100984.97;5015057;28;20064;-82
2022/09/16 02:46:32;;;;;;;5.57;2.00;;;;;;;9.76;100.00;100975.56;5029287;28;20384;-82
2022/09/16 02:49:08;;;;;;;7.28;2.00;;;;;;;9.79;100.00;100980.41;5009028;28;20037;-82
2022/09/16 02:51:55;;;;;;;6.93;2.22;;;;;;;9.74;100.00;100975.78;5010093;28;20048;-83
2022/09/16 02:54:46;;;;;;;9.23;2.63;;;;;;;9.73;100.00;100981.41;5010211;28;20557;-83
2022/09/16 02:57:12;;;;;;;9.25;2.05;;;;;;;9.71;100.00;100984.31;5009637;28;20461;-83
2022/09/16 02:59:38;;;;;;;10.80;2.17;;;;;;;9.72;100.00;100977.91;5007989;28;20397;-82
2022/09/16 03:02:04;;;;;;;6.53;2.60;;;;;;;9.78;100.00;100986.81;5011040;28;20037;-82
2022/09/16 03:04:29;;;;;;;6.72;2.30;;;;;;;9.77;100.00;100983.34;5009900;28;20076;-82
2022/09/16 03:06:55;;;;;;;16.80;2.57;;;;;;;9.78;100.00;100979.59;5009947;28;20030;-82
2022/09/16 03:09:22;;;;;;;7.13;2.08;;;;;;;9.85;100.00;100979.41;5008218;28;20042;-82
2022/09/16 03:11:58;;;;;;;5.78;2.78;;;;;;;9.87;100.00;100973.81;5009361;28;20073;-82
2022/09/16 03:14:45;;;;;;;11.25;2.95;;;;;;;9.94;100.00;100982.47;5009801;28;20109;-82
2022/09/16 03:17:36;;;;;;;5.90;2.00;;;;;;;9.96;100.00;100972.31;5002423;28;20065;-82
2022/09/16 03:20:14;;;;;;;6.50;1.93;;;;;;;10.04;100.00;100965.72;5009190;28;20037;-82
2022/09/16 03:22:47;;;;;;;8.37;2.00;;;;;;;10.10;100.00;100970.88;5002176;28;20314;-82
2022/09/16 03:25:29;;;;;;;8.02;1.88;;;;;;;10.07;100.00;100960.66;5013591;28;20029;-82
2022/09/16 03:28:04;;;;;;;7.20;2.10;;;;;;;10.10;100.00;100984.25;4993561;28;20046;-82
2022/09/16 03:30:33;;;;;;;6.28;1.80;;;;;;;10.04;100.00;100973.75;5014651;28;20033;-82
2022/09/16 03:33:08;;;;;;;11.57;2.35;;;;;;;10.02;100.00;100984.72;5016539;28;20409;-83
2022/09/16 03:35:49;;;;;;;6.95;1.88;;;;;;;9.94;100.00;100983.28;5013585;28;20046;-83
2022/09/16 03:38:16;;;;;;;8.05;1.80;;;;;;;9.88;100.00;100980.78;5012502;28;20381;-83
2022/09/16 03:40:42;;;;;;;4.65;2.00;;;;;;;9.84;100.00;100977.78;5012433;28;20117;-83
2022/09/16 03:43:11;;;;;;;9.15;2.47;;;;;;;9.84;100.00;100975.94;5012991;28;20037;-83
2022/09/16 03:45:39;;;;;;;8.03;2.37;;;;;;;9.80;100.00;100974.81;5011322;28;20025;-83
2022/09/16 03:48:05;;;;;;;5.70;2.27;;;;;;;9.79;100.00;100970.53;5010753;28;20277;-83
2022/09/16 03:50:30;;;;;;;9.02;2.00;;;;;;;9.79;100.00;100965.16;5030741;28;20037;-82
2022/09/16 03:52:55;;;;;;;7.83;1.93;;;;;;;9.75;100.00;100960.56;5032181;28;20040;-81
2022/09/16 03:55:21;;;;;;;5.77;1.63;;;;;;;9.77;100.00;100969.97;5009565;28;20017;-81
2022/09/16 03:57:46;;;;;;;8.25;1.77;;;;;;;9.76;100.00;100972.91;5017858;28;20025;-82
2022/09/16 04:00:14;;;;;;;9.27;2.10;;;;;;;9.77;100.00;100969.16;5022707;28;20053;-82
2022/09/16 04:02:40;;;;;;;11.27;2.00;;;;;;;9.74;100.00;100973.13;5013382;28;20025;-81
2022/09/16 04:05:07;;;;;;;4.67;1.80;;;;;;;9.67;100.00;100964.50;5015353;28;20032;-81
2022/09/16 04:07:33;;;;;;;11.68;2.28;;;;;;;9.64;100.00;100967.66;5018804;28;20029;-82
2022/09/16 04:09:58;;;;;;;9.03;2.03;;;;;;;9.56;100.00;100971.56;5014903;28;20425;-83
2022/09/16 04:12:23;;;;;;;9.63;2.40;;;;;;;9.49;100.00;100966.41;5014342;28;20800;-83
2022/09/16 04:14:49;;;;;;;4.37;2.27;;;;;;;9.50;100.00;100967.19;5012347;28;20032;-82
2022/09/16 04:17:15;;;;;;;7.63;2.10;;;;;;;9.54;100.00;100974.47;5011548;28;20049;-82
2022/09/16 04:19:40;;;;;;;10.07;2.20;;;;;;;9.51;100.00;100964.25;5011921;28;20042;-82
2022/09/16 04:22:05;;;;;;;5.97;2.07;;;;;;;9.47;100.00;100963.16;5022893;28;20497;-83
2022/09/16 04:24:31;;;;;;;7.80;2.50;;;;;;;9.48;100.00;100972.81;5026158;28;20030;-83
2022/09/16 04:26:56;;;;;;;6.25;2.20;;;;;;;9.43;100.00;100964.69;5025778;28;20496;-83
2022/09/16 04:29:22;;;;;;;13.23;2.30;;;;;;;9.43;100.00;100970.06;5014981;28;20133;-83
2022/09/16 04:31:47;;;;;;;6.53;2.73;;;;;;;9.50;100.00;100977.91;5011336;28;20026;-83
2022/09/16 04:34:13;;;;;;;13.45;2.50;;;;;;;9.51;100.00;100974.97;5009490;28;20113;-82
2022/09/16 04:36:38;;;;;;;5.07;1.93;;;;;;;9.51;100.00;100984.88;5010718;28;20024;-83
2022/09/16 04:39:04;;;;;;;8.00;2.03;;;;;;;9.50;100.00;100983.25;5004863;28;20054;-84
2022/09/16 04:41:30;;;;;;;11.93;2.60;;;;;;;9.53;100.00;100980.88;5005387;28;20030;-83
2022/09/16 04:43:58;;;;;;;11.57;2.63;;;;;;;9.61;100.00;100982.31;5011393;28;20026;-83
2022/09/16 04:46:25;;;;;;;10.93;2.72;;;;;;;9.67;100.00;100972.50;5014837;28;20115;-83
2022/09/16 04:48:52;;;;;;;8.05;2.53;;;;;;;9.74;100.00;100985.72;5011575;28;20022;-84
2022/09/16 04:51:21;;;;;;;6.30;1.70;;;;;;;9.75;100.00;100977.41;5010896;28;20090;-84
2022/09/16 04:53:47;;;;;;;9.30;1.80;;;;;;;9.77;100.00;100972.63;5008771;28;20120;-83
2022/09/16 04:56:14;;;;;;;11.75;1.65;;;;;;;9.79;100.00;100965.16;5007606;28;20022;-83
2022/09/16 04:58:48;;;;;;;4.47;1.63;;;;;;;9.82;100.00;100964.69;5028937;28;20037;-82
2022/09/16 05:01:16;;;;;;;3.65;1.67;;;;;;;9.84;100.00;100967.09;5030917;28;20037;-82
2022/09/16 05:03:44;;;;;;;6.27;1.80;;;;;;;9.83;100.00;100960.13;5031160;28;20026;-83
2022/09/16 05:06:15;;;;;;;4.93;1.63;;;;;;;9.82;100.00;100961.16;5023198;28;20642;-83
2022/09/16 05:08:40;;;;;;;6.82;1.80;;;;;;;9.81;100.00;100964.91;5011286;28;20492;-83
2022/09/16 05:11:10;;;;;;;5.47;1.60;;;;;;;9.77;100.00;100972.63;5021286;28;20037;-84
2022/09/16 05:13:37;;;;;;;9.38;1.80;;;;;;;9.71;100.00;100962.91;5031314;28;20116;-84
2022/09/16 05:16:08;;;;;;;5.97;1.83;;;;;;;9.74;100.00;100983.81;5030023;28;20041;-85
2022/09/16 05:18:34;;;;;;;8.27;1.70;;;;;;;9.74;100.00;100983.81;5015861;28;20030;-83
2022/09/16 05:21:00;;;;;;;4.27;1.60;;;;;;;9.68;100.00;100980.28;5002136;28;20309;-83
2022/09/16 05:23:26;;;;;;;8.18;1.58;;;;;;;9.50;100.00;100951.94;5027694;28;20034;-85
2022/09/16 05:32:23;;;;;;;6.57;1.60;;;;;;;9.62;100.00;100991.16;5037323;22;20084;-84
2022/09/16 05:34:49;;;;;;;3.97;1.47;;;;;;;9.73;100.00;101000.94;5050509;28;20773;-86
2022/09/16 05:37:16;;;;;;;11.75;1.70;;;;;;;9.72;100.00;100996.63;5042842;28;20072;-82
2022/09/16 05:39:42;;;;;;;6.95;1.40;;;;;;;9.75;100.00;100984.66;5021418;28;20036;-83
2022/09/16 05:42:09;;;;;;;4.78;1.17;;;;;;;9.79;100.00;100977.72;5041143;28;20555;-85
2022/09/16 05:44:35;;;;;;;4.43;1.23;;;;;;;9.73;100.00;100968.03;5030538;28;20132;-84
2022/09/16 05:47:19;;;;;;;3.08;1.20;;;;;;;9.71;100.00;100962.91;5028486;28;20129;-83
2022/09/16 05:49:47;;;;;;;1.83;1.15;;;;;;;9.90;100.00;100984.00;5027753;28;20072;-83
2022/09/16 05:52:25;;;;;;;8.70;1.80;;;;;;;9.69;100.00;100954.31;5029468;28;20049;-84
2022/09/16 05:54:51;;;;;;;6.57;1.50;;;;;;;9.77;100.00;100961.13;5030226;28;20420;-83
2022/09/16 05:57:16;;;;;;;7.10;1.47;;;;;;;9.99;100.00;100994.03;5024654;28;20022;-83
2022/09/16 05:59:41;;;;;;;4.67;1.47;;;;;;;10.02;100.00;101000.78;5045735;28;20051;-84
2022/09/16 06:02:08;;;;;;;10.27;1.40;;;;;;;10.05;100.00;100989.53;5046953;28;20095;-83
2022/09/16 06:04:33;;;;;;;8.48;1.27;;;;;;;10.02;100.00;100987.38;5047540;28;20032;-83
2022/09/16 06:06:58;;;;;;;8.57;1.75;;;;;;;10.03;100.00;100988.19;5025374;28;20704;-84
2022/09/16 06:12:35;;;;;;;6.03;1.55;;;;;;;9.90;100.00;100962.59;5031717;28;20036;-84
2022/09/16 06:15:13;;;;;;;5.30;1.27;;;;;;;9.87;100.00;100961.25;5028392;28;20087;-83
2022/09/16 06:18:22;;;;;;;;;;;;;;;;;;;;;
2022/09/16 06:20:48;;;;;;;4.72;1.25;;;;;;;10.10;100.00;100986.94;5027310;28;20045;-83
2022/09/16 06:23:13;;;;;;;6.15;1.65;;;;;;;10.24;100.00;100987.38;5029186;28;20024;-84
2022/09/16 06:25:39;;;;;;;12.27;2.00;;;;;;;10.44;100.00;101012.78;5020439;28;20077;-83
2022/09/16 06:28:04;;;;;;;5.05;1.17;;;;;;;10.52;100.00;101017.66;5030725;28;20029;-83
2022/09/16 06:30:29;;;;;;;5.00;1.30;;;;;;;10.43;100.00;101003.91;5038225;28;20030;-83
2022/09/16 06:32:55;;;;;;;4.03;1.10;;;;;;;10.41;100.00;101018.63;5023180;28;20025;-83
2022/09/16 06:35:20;;;;;;;5.90;1.20;;;;;;;10.47;100.00;101014.13;5026600;28;20029;-83
2022/09/16 06:37:46;;;;;;;4.57;1.43;;;;;;;10.57;100.00;101015.03;5027432;28;20530;-83
2022/09/16 06:40:11;;;;;;;6.85;1.42;;;;;;;10.70;100.00;101013.00;5029050;28;20113;-83
2022/09/16 06:42:36;;;;;;;4.90;1.20;;;;;;;10.83;100.00;101019.84;5026998;28;20029;-83
2022/09/16 06:45:08;;;;;;;5.33;1.20;;;;;;;10.81;100.00;101016.59;5023921;28;20036;-83
2022/09/16 06:47:34;;;;;;;5.15;1.10;;;;;;;10.93;100.00;101035.19;5025762;28;20402;-82
2022/09/16 06:49:59;;;;;;;5.18;1.35;;;;;;;10.83;100.00;101012.63;5025443;28;20044;-82
2022/09/16 06:52:26;;;;;;;4.57;1.30;;;;;;;10.96;100.00;101030.13;5024501;28;20034;-83
2022/09/16 06:54:51;;;;;;;5.35;1.10;;;;;;;10.91;100.00;101038.16;5029144;28;20136;-83
2022/09/16 06:57:21;;;;;;;4.63;1.10;;;;;;;10.89;100.00;101032.22;5032491;28;20040;-83
2022/09/16 06:59:48;;;;;;;5.18;1.17;;;;;;;10.79;100.00;101029.44;5031284;28;20039;-83
2022/09/16 07:02:13;;;;;;;4.63;1.10;;;;;;;10.56;100.00;101016.09;5047298;28;20041;-83
2022/09/16 07:04:39;;;;;;;5.60;1.20;;;;;;;10.49;100.00;101030.78;5031527;28;20032;-84
2022/09/16 07:07:04;;;;;;;4.37;1.13;;;;;;;10.31;100.00;101016.63;5031370;28;20323;-82
2022/09/16 07:09:31;;;;;;;3.00;1.20;;;;;;;10.32;100.00;101017.44;5032138;28;20029;-81
2022/09/16 07:11:58;;;;;;;4.20;1.37;;;;;;;10.25;100.00;101010.41;5025711;28;20300;-81
2022/09/16 07:14:23;;;;;;;4.80;1.10;;;;;;;10.27;100.00;101015.50;5031889;28;20065;-82
2022/09/16 07:16:49;;;;;;;6.72;1.40;;;;;;;10.35;100.00;101019.59;5030524;28;20091;-81
2022/09/16 07:19:14;;;;;;;6.70;1.50;;;;;;;10.31;100.00;101011.25;5032148;28;20021;-81
2022/09/16 07:21:40;;;;;;;5.32;1.42;;;;;;;10.39;100.00;101021.56;5028949;28;20392;-82
2022/09/16 07:24:07;;;;;;;4.37;1.30;;;;;;;10.38;100.00;101017.28;5028917;28;20018;-82
2022/09/16 07:26:36;;;;;;;3.88;1.40;;;;;;;10.45;100.00;101015.19;5026606;28;20022;-82
2022/09/16 07:29:03;;;;;;;4.78;1.58;;;;;;;10.46;100.00;101010.66;5030990;28;20033;-83
2022/09/16 07:31:32;;;;;;;5.63;1.50;;;;;;;10.56;100.00;101028.72;5032951;28;20497;-82
2022/09/16 07:34:00;;;;;;;4.00;1.35;;;;;;;10.63;100.00;101031.19;5027848;28;20335;-82
2022/09/16 07:36:28;;;;;;;3.20;1.40;;;;;;;10.66;100.00;101025.31;5027917;28;20392;-82
2022/09/16 07:38:57;;;;;;;9.67;1.40;;;;;;;10.82;100.00;101045.03;5031098;28;20022;-83
2022/09/16 07:41:25;;;;;;;8.97;1.47;;;;;;;11.06;100.00;101042.81;5031149;28;20303;-83
2022/09/16 07:43:53;;;;;;;2.92;1.60;;;;;;;11.45;100.00;101045.25;5032441;28;20021;-83
2022/09/16 07:46:18;;;;;;;9.00;1.80;;;;;;;11.85;100.00;101031.53;5032918;28;20477;-83
2022/09/16 07:48:46;;;;;;;5.32;1.70;;;;;;;11.93;100.00;101042.56;5028373;28;20056;-82
2022/09/16 07:51:16;;;;;;;6.70;1.60;;;;;;;11.90;100.00;101047.66;5034635;28;20035;-82
2022/09/16 07:53:43;;;;;;;7.23;1.50;;;;;;;11.84;100.00;101041.47;5049356;28;20367;-82
2022/09/16 07:56:19;;;;;;;7.05;1.63;;;;;;;11.92;100.00;101035.59;5036086;28;20029;-82
2022/09/16 07:58:45;;;;;;;5.70;1.30;;;;;;;11.86;100.00;101044.72;5032905;28;20026;-82
2022/09/16 08:01:15;;;;;;;7.57;1.30;;;;;;;11.71;100.00;101049.97;5031484;28;20029;-82
2022/09/16 08:03:42;;;;;;;3.28;1.23;;;;;;;11.58;100.00;101052.06;5030482;28;20033;-83
2022/09/16 08:06:11;;;;;;;9.13;1.92;;;;;;;11.37;100.00;101056.47;5027980;28;20028;-83
2022/09/16 08:08:37;;;;;;;6.78;1.60;;;;;;;11.26;100.00;101060.13;5039326;28;20077;-83
2022/09/16 08:11:03;;;;;;;6.80;2.00;;;;;;;11.20;100.00;101056.63;5030931;28;20481;-83
2022/09/16 08:13:31;;;;;;;6.60;2.00;;;;;;;11.15;100.00;101059.25;5047619;28;20090;-83
2022/09/16 08:16:02;;;;;;;6.80;2.00;;;;;;;11.18;100.00;101064.94;5051990;28;20068;-83
2022/09/16 08:18:27;;;;;;;7.53;2.30;;;;;;;11.20;100.00;101060.13;5038221;28;20059;-83
2022/09/16 08:20:53;;;;;;;5.40;1.90;;;;;;;11.15;100.00;101054.72;5029788;28;20500;-83
2022/09/16 08:23:19;;;;;;;7.07;2.20;;;;;;;11.23;100.00;101061.47;5039671;28;20028;-83
2022/09/16 08:25:44;;;;;;;4.17;2.10;;;;;;;11.27;100.00;101061.75;5034031;28;20021;-83
2022/09/16 08:28:16;;;;;;;4.85;2.17;;;;;;;11.28;100.00;101061.53;5031797;28;20037;-83
2022/09/16 08:30:42;;;;;;;10.73;2.57;;;;;;;11.35;100.00;101058.63;5029720;28;20511;-83
2022/09/16 08:41:04;;;;;;;8.27;2.72;;;;;;;11.66;100.00;101072.22;5070900;22;20053;-84
2022/09/16 08:43:58;;;;;;;5.80;2.55;;;;;;;11.73;100.00;101061.25;5032681;28;20024;-84
2022/09/16 08:46:45;;;;;;;4.75;2.45;;;;;;;11.85;100.00;101067.25;5031560;28;20124;-84
2022/09/16 08:49:29;;;;;;;7.68;2.50;;;;;;;11.90;100.00;101059.22;5018113;28;20034;-83
2022/09/16 08:51:58;;;;;;;5.28;2.05;;;;;;;11.96;100.00;101062.72;5026851;28;20068;-84
2022/09/16 08:54:26;;;;;;;7.63;2.00;;;;;;;12.06;100.00;101072.72;5028231;28;20034;-84
2022/09/16 08:56:53;;;;;;;7.80;2.20;;;;;;;12.20;100.00;101068.53;5033820;28;20520;-84
2022/09/16 08:59:23;;;;;;;4.90;2.33;;;;;;;12.46;100.00;101067.81;5025498;28;20381;-84
2022/09/16 09:02:02;;;;;;;8.02;2.03;;;;;;;12.53;100.00;101077.22;5030814;28;20056;-84
2022/09/16 09:04:31;;;;;;;5.72;2.15;;;;;;;12.53;100.00;101060.28;5030382;28;20048;-84
2022/09/16 09:07:13;;;;;;;5.72;1.98;;;;;;;12.65;100.00;101068.09;5047372;28;20116;-83
2022/09/16 09:09:47;;;;;;;4.75;1.50;;;;;;;12.70;100.00;101076.19;5030250;28;20100;-84
2022/09/16 09:12:13;;;;;;;8.15;1.50;;;;;;;12.83;100.00;101075.66;5038175;28;20048;-83
2022/09/16 09:15:00;;;;;;;6.43;1.25;;;;;;;13.27;100.00;101073.53;5033998;28;20397;-83
2022/09/16 09:17:44;;;;;;;3.72;1.23;;;;;;;13.75;100.00;101074.03;5009885;28;20476;-83
2022/09/16 09:20:37;;;;;;;5.57;1.20;;;;;;;14.12;100.00;101074.75;5035895;28;20045;-83
2022/09/16 09:23:15;;;;;;;3.90;1.10;;;;;;;14.29;100.00;101069.00;5028345;28;20460;-83
2022/09/16 09:25:58;;;;;;;4.65;0.90;;;;;;;14.27;100.00;101071.16;5042856;28;20113;-84
2022/09/16 09:28:52;;;;;;;6.97;1.15;;;;;;;14.17;100.00;101074.72;5028624;28;20029;-85
2022/09/16 09:31:34;;;;;;;5.05;0.88;;;;;;;14.07;97.71;101072.84;4990284;28;20045;-84
2022/09/16 09:34:30;;;;;;;2.65;0.73;;;;;;;13.92;97.42;101062.13;5027981;28;20032;-84
2022/09/16 09:36:58;;;;;;;4.60;0.73;;;;;;;13.82;96.85;101081.03;5028503;28;20546;-84
2022/09/16 09:39:51;;;;;;;5.43;0.80;;;;;;;13.68;98.84;101070.84;5030606;28;20029;-84
2022/09/16 09:42:26;;;;;;;5.55;1.00;;;;;;;13.69;98.84;101068.94;5030654;28;20029;-84
2022/09/16 09:44:58;;;;;;;5.97;1.10;;;;;;;13.71;98.09;101067.56;5027221;28;20029;-85
2022/09/16 09:47:31;;;;;;;5.63;0.80;;;;;;;14.21;99.45;101069.59;5028849;28;20033;-84
2022/09/16 09:50:09;;;;;;;3.17;0.77;;;;;;;14.58;93.44;101081.81;5019161;28;20487;-84
2022/09/16 09:52:44;;;;;;;1.75;0.40;;;;;;;14.35;82.92;101100.25;5041664;28;20025;-83
2022/09/16 09:55:16;;;;;;;7.38;0.60;;;;;;;13.26;88.89;101109.59;5033570;28;20028;-83
2022/09/16 09:57:59;;;;;;;2.90;0.40;;;;;;;12.10;91.92;101111.44;5050271;28;20051;-82
2022/09/16 10:00:25;;;;;;;4.28;0.52;;;;;;;11.43;98.59;101102.94;5037793;28;20116;-83
2022/09/16 10:02:50;;;;;;;3.13;0.37;;;;;;;11.12;100.00;101108.06;5045314;28;20152;-82
2022/09/16 10:05:21;;;;;;;3.05;0.50;;;;;;;10.94;100.00;101102.00;5029368;28;20064;-82
2022/09/16 10:07:51;;;;;;;2.97;0.40;;;;;;;10.90;100.00;101101.66;5034847;28;20041;-82
2022/09/16 10:10:21;;;;;;;2.50;0.60;;;;;;;10.80;100.00;101096.22;5047183;28;20298;-82
2022/09/16 10:12:46;;;;;;;1.50;0.43;;;;;;;10.67;100.00;101108.13;5046091;28;20124;-82
2022/09/16 10:15:21;;;;;;;3.53;0.45;;;;;;;10.59;100.00;101105.91;5036295;28;20068;-83
2022/09/16 10:17:51;;;;;;;3.73;0.50;;;;;;;10.35;100.00;101100.78;5016142;28;20052;-83
2022/09/16 10:20:23;;;;;;;4.85;0.50;;;;;;;10.27;100.00;101099.34;5025660;28;20033;-83
2022/09/16 10:23:01;;;;;;;1.52;0.30;;;;;;;10.21;100.00;101094.19;5044277;28;20068;-82
2022/09/16 10:25:29;;;;;;;1.13;0.30;;;;;;;10.10;100.00;101083.31;5049969;28;20487;-83
2022/09/16 10:28:00;;;;;;;3.67;0.40;;;;;;;10.27;100.00;101079.78;5049758;28;20108;-83
2022/09/16 10:30:33;;;;;;;2.30;0.30;;;;;;;10.52;100.00;101078.50;5049601;28;20074;-83
2022/09/16 10:33:06;;;;;;;2.55;0.40;;;;;;;10.68;100.00;101077.59;5047884;28;20500;-83
2022/09/16 10:35:36;;;;;;;1.77;0.30;;;;;;;10.63;100.00;101069.50;5052795;28;20028;-83
2022/09/16 10:38:23;;;;;;;1.95;0.30;;;;;;;10.71;100.00;101076.28;5032913;28;20034;-83
2022/09/16 10:41:18;;;;;;;1.77;0.20;;;;;;;10.80;100.00;101085.50;5033051;28;20029;-83
2022/09/16 10:43:50;;;;;;;2.10;0.30;;;;;;;10.72;100.00;101076.03;5030708;28;20774;-83
2022/09/16 10:46:17;;;;;;;0.82;0.32;;;;;;;10.85;100.00;101090.09;5016283;28;20034;-84
2022/09/16 10:48:44;;;;;;;3.05;0.30;;;;;;;10.77;100.00;101090.56;5034720;28;20017;-83
2022/09/16 10:51:23;;;;;;;2.42;0.30;;;;;;;10.78;100.00;101082.25;5051043;28;20036;-84
2022/09/16 10:53:55;;;;;;;4.50;0.40;;;;;;;10.82;100.00;101083.38;5053698;28;20049;-84
2022/09/16 10:56:24;;;;;;;1.00;0.30;;;;;;;11.17;100.00;101092.81;5031158;28;20078;-84
2022/09/16 10:59:04;;;;;;;2.28;0.45;;;;;;;11.35;100.00;101083.56;5033496;28;20112;-84
2022/09/16 11:01:45;;;;;;;1.48;0.50;;;;;;;11.55;100.00;101092.03;5033091;28;20025;-83
2022/09/16 11:04:28;;;;;;;2.75;0.65;;;;;;;11.77;100.00;101086.53;5031859;28;20109;-83
2022/09/16 11:07:04;;;;;;;1.37;0.60;;;;;;;11.85;100.00;101077.16;5032680;28;20128;-83
2022/09/16 11:09:38;;;;;;;4.77;0.80;;;;;;;11.99;100.00;101085.59;5033534;28;20307;-84
2022/09/16 11:12:10;;;;;;;2.42;0.60;;;;;;;12.08;100.00;101086.72;5032836;28;20052;-84
2022/09/16 11:15:06;;;;;;;3.10;0.70;;;;;;;12.08;100.00;101095.59;5033251;28;20032;-84
2022/09/16 11:17:43;;;;;;;4.72;0.50;;;;;;;11.83;100.00;101069.38;5031520;28;20116;-83
2022/09/16 11:20:41;;;;;;;6.28;1.00;;;;;;;11.95;100.00;101096.03;5037263;28;20037;-83
2022/09/16 11:23:42;;;;;;;4.00;0.80;;;;;;;12.07;100.00;101099.34;5051763;28;20036;-83
2022/09/16 11:26:22;;;;;;;3.13;0.93;;;;;;;12.29;100.00;101093.00;5038650;28;20029;-83
2022/09/16 11:29:09;;;;;;;10.48;1.00;;;;;;;12.36;100.00;101092.75;5011921;28;20029;-83
2022/09/16 11:31:37;;;;;;;5.22;0.93;;;;;;;12.55;100.00;101090.38;5012765;28;20512;-84
2022/09/16 11:34:07;;;;;;;4.23;1.00;;;;;;;12.61;100.00;101077.75;5012548;28;20025;-83
2022/09/16 11:36:44;;;;;;;4.90;1.10;;;;;;;12.83;100.00;101080.25;5042802;28;20314;-84
2022/09/16 11:39:33;;;;;;;7.57;1.10;;;;;;;13.27;100.00;101092.38;5037173;28;20021;-83
2022/09/16 11:42:03;;;;;;;2.78;1.15;;;;;;;13.65;100.00;101094.78;5039677;28;20036;-83
2022/09/16 11:44:38;;;;;;;11.07;1.15;;;;;;;13.70;100.00;101103.66;5084825;22;20037;-82
2022/09/16 11:47:32;;;;;;;6.13;1.20;;;;;;;13.80;100.00;101092.06;5013039;28;20561;-83
2022/09/16 11:50:07;;;;;;;5.53;0.82;;;;;;;14.43;100.00;101096.16;4998445;28;20038;-83
2022/09/16 11:52:57;;;;;;;7.93;1.75;;;;;;;15.05;100.00;101103.94;5028123;28;20072;-84
2022/09/16 11:55:49;;;;;;;5.72;1.00;;;;;;;15.38;100.00;101101.50;5017868;28;20393;-84
2022/09/16 11:58:29;;;;;;;7.72;1.25;;;;;;;15.80;100.00;101099.22;5010722;28;20030;-83
2022/09/16 12:00:58;;;;;;;4.20;0.93;;;;;;;15.50;96.62;101128.13;5027638;28;20064;-84
2022/09/16 12:03:46;;;;;;;3.13;0.50;;;;;;;14.24;93.62;101145.31;5027452;28;20354;-83